Portada
METAR-TAF:

METAR-TAF

Aeropuertos :

Timimoun, Argelia

latitud: 29-15N, longitud: 000-17E, altitud: 312 m

Observación

El informe se hizo hace 17 minutos, a las 17:00 UTC
Viento 7 kt del norte-noreste
Temperatura 16°C
Humedad 31%
Presión 1029 hPa
Visibilidad 10 km o más
sin nubes por debajo de 1500 m y sin presencia de cumulonimbus.

METAR: DAUT 171700Z 03007KT CAVOK 16/M01 Q1029

Hora: 18:17 (17:17 UTC)

Pronóstico

El informe se hizo hace 3 horas y 17 minutos, a las 14:00 UTC
Pronóstico válido del 17 a las 15 UTC al 17 a las 24 UTC
Viento 12 kt del noreste
Visibilidad 10 km o más
sin nubes por debajo de 1500 m y sin presencia de cumulonimbus.
Probabilidad 40% :
Temporalmente
del 17 a las 15 UTC al 17 a las 19 UTC
Viento 22 kt del este-noreste
Visibilidad: 5000 m
Ventisca baja de arena

TAF: DAUT 171400Z 1715/1724 04012KT CAVOK PROB40 TEMPO 1715/1719 06022KT 5000 DRSA

Observaciones y pronósticos meteorológicos de más de 4000 aeropuertos (mensajes METAR y TAF).

Los puntos amarillos y rojos representan las estaciones disponibles.

Ponga el ratón en el punto deseado para ver el nombre de la estación.

Haga clic para ver las observaciones y los pronósticos meteorológicos.

Para cambiar el mapa : haga clic en los botones verdes con una cruz de color negro para hacer un zoom, en el botón verde con un guión para alejar o en las flechas verdes para mapas adyacentes.


METAR-TAF: